createdAt,value
2022-12-15T00:00:24.137Z,24.30
2022-12-15T00:03:09.584Z,32.60
2022-12-15T00:05:55.215Z,25.03
2022-12-15T00:08:40.485Z,25.50
2022-12-15T00:11:27.121Z,22.67
2022-12-15T00:14:15.600Z,26.20
2022-12-15T00:17:01.186Z,25.03
2022-12-15T00:19:47.079Z,24.90
2022-12-15T00:22:32.838Z,24.30
2022-12-15T00:25:18.194Z,21.00
2022-12-15T00:28:04.416Z,29.80
2022-12-15T00:30:55.067Z,24.10
2022-12-15T00:33:43.049Z,24.83
2022-12-15T00:36:28.326Z,21.93
2022-12-15T00:39:00.464Z,18.13
2022-12-15T00:41:30.624Z,23.47
2022-12-15T00:43:57.777Z,24.57
2022-12-15T00:46:43.682Z,24.70
2022-12-15T00:49:30.922Z,20.30
2022-12-15T00:52:16.744Z,21.70
2022-12-15T00:55:05.950Z,27.63
2022-12-15T00:57:54.437Z,22.33
2022-12-15T01:00:41.499Z,23.37
2022-12-15T01:03:40.389Z,32.27
2022-12-15T01:06:31.538Z,24.00
2022-12-15T01:09:20.330Z,24.67
2022-12-15T01:12:06.360Z,30.03
2022-12-15T01:14:52.334Z,24.77
2022-12-15T01:17:40.926Z,24.00
2022-12-15T01:20:18.139Z,34.53
2022-12-15T01:22:55.654Z,29.15
2022-12-15T01:25:28.020Z,30.17
2022-12-15T01:27:57.739Z,30.03
2022-12-15T01:30:35.521Z,38.87
2022-12-15T01:33:04.311Z,30.27
2022-12-15T01:35:32.152Z,33.40
2022-12-15T01:37:59.245Z,31.93
2022-12-15T01:40:45.062Z,34.53
2022-12-15T01:43:20.048Z,35.50
2022-12-15T01:45:58.491Z,32.83
2022-12-15T01:48:44.665Z,29.27
2022-12-15T01:51:30.863Z,38.10
2022-12-15T01:54:23.472Z,37.87
2022-12-15T01:56:59.518Z,32.47
2022-12-15T01:59:38.358Z,35.63
2022-12-15T02:02:05.787Z,34.00
2022-12-15T02:04:37.965Z,35.00
2022-12-15T02:07:13.230Z,40.47
2022-12-15T02:09:42.551Z,33.03
2022-12-15T02:12:22.449Z,35.53
2022-12-15T02:15:36.418Z,36.50
2022-12-15T02:18:41.024Z,32.03
2022-12-15T02:21:33.598Z,38.97
2022-12-15T02:24:23.151Z,37.97
2022-12-15T02:27:11.623Z,34.37
2022-12-15T02:30:18.534Z,39.47
2022-12-15T02:33:07.392Z,37.90
2022-12-15T02:35:55.506Z,36.30
2022-12-15T02:38:41.591Z,37.97
2022-12-15T02:41:54.840Z,40.20
2022-12-15T02:44:36.831Z,44.27
2022-12-15T02:47:22.093Z,36.30
2022-12-15T02:50:27.851Z,41.63
2022-12-15T02:53:45.956Z,35.27
2022-12-15T02:56:33.253Z,36.00
2022-12-15T02:59:11.308Z,39.43
2022-12-15T03:01:56.559Z,50.87
2022-12-15T03:04:27.748Z,32.10
2022-12-15T03:07:08.058Z,37.10
2022-12-15T03:09:37.642Z,47.60
2022-12-15T03:12:07.435Z,39.07
2022-12-15T03:14:36.881Z,44.00
2022-12-15T03:17:08.507Z,38.13
2022-12-15T03:19:35.862Z,43.27
2022-12-15T03:22:02.946Z,39.70
2022-12-15T03:24:31.712Z,39.53
2022-12-15T03:26:59.880Z,40.17
2022-12-15T03:29:27.234Z,33.60
2022-12-15T03:31:55.495Z,31.47
2022-12-15T03:34:26.420Z,35.10
2022-12-15T03:36:53.623Z,40.73
2022-12-15T03:39:20.938Z,41.97
2022-12-15T03:41:47.940Z,38.17
2022-12-15T03:44:15.163Z,36.00
2022-12-15T03:46:42.109Z,37.53
2022-12-15T03:49:09.290Z,29.80
2022-12-15T03:51:36.226Z,36.63
2022-12-15T03:54:03.365Z,31.13
2022-12-15T03:56:30.295Z,38.03
2022-12-15T03:58:59.922Z,36.30
2022-12-15T04:01:35.040Z,34.37
2022-12-15T04:04:05.645Z,34.90
2022-12-15T04:06:34.776Z,42.70
2022-12-15T04:09:01.882Z,31.50
2022-12-15T04:11:29.376Z,27.97
2022-12-15T04:13:56.729Z,34.77
2022-12-15T04:16:29.209Z,41.60
2022-12-15T04:19:14.936Z,36.47
2022-12-15T04:21:44.766Z,34.33
2022-12-15T04:24:33.325Z,36.00
2022-12-15T04:27:18.630Z,45.70
2022-12-15T04:30:09.588Z,39.27
2022-12-15T04:32:56.864Z,38.27
2022-12-15T04:35:45.236Z,46.63
2022-12-15T04:38:35.681Z,39.43
2022-12-15T04:41:21.892Z,38.30
2022-12-15T04:44:07.817Z,40.20
2022-12-15T04:46:53.648Z,43.40
2022-12-15T04:49:39.453Z,41.73
2022-12-15T04:52:24.604Z,41.30
2022-12-15T04:55:12.326Z,45.13
2022-12-15T04:58:01.409Z,37.23
2022-12-15T05:00:46.865Z,48.20
2022-12-15T05:03:33.137Z,47.07
2022-12-15T05:06:18.845Z,48.70
2022-12-15T05:09:04.595Z,44.80
2022-12-15T05:11:51.477Z,41.50
2022-12-15T05:14:40.623Z,41.92
2022-12-15T05:17:29.631Z,35.20
2022-12-15T05:20:15.437Z,41.70
2022-12-15T05:23:12.908Z,33.07
2022-12-15T05:25:59.045Z,38.57
2022-12-15T05:28:46.975Z,32.67
2022-12-15T05:31:33.173Z,36.70
2022-12-15T05:34:05.061Z,35.13
2022-12-15T05:36:33.666Z,33.70
2022-12-15T05:39:00.724Z,43.67
2022-12-15T05:41:31.841Z,40.97
2022-12-15T05:43:59.018Z,48.23
2022-12-15T05:46:26.047Z,43.20
2022-12-15T05:48:55.505Z,40.20
2022-12-15T05:51:22.685Z,36.97
2022-12-15T05:53:52.037Z,37.30
2022-12-15T05:56:19.264Z,33.73
2022-12-15T05:58:46.251Z,41.23
2022-12-15T06:01:17.012Z,42.08
2022-12-15T06:03:44.481Z,35.50
2022-12-15T06:06:14.737Z,39.07
2022-12-15T06:08:44.612Z,36.33
2022-12-15T06:11:20.204Z,42.27
2022-12-15T06:13:54.547Z,35.47
2022-12-15T06:16:26.265Z,42.20
2022-12-15T06:18:59.833Z,36.40
2022-12-15T06:21:31.471Z,39.17
2022-12-15T06:24:02.241Z,40.42
2022-12-15T06:26:35.909Z,39.80
2022-12-15T06:29:11.091Z,46.03
2022-12-15T06:31:39.543Z,36.60
2022-12-15T06:34:13.066Z,41.23
2022-12-15T06:36:45.349Z,42.30
2022-12-15T06:39:15.625Z,40.43
2022-12-15T06:41:43.758Z,40.20
2022-12-15T06:44:17.678Z,41.07
2022-12-15T06:46:46.022Z,44.03
2022-12-15T06:49:13.982Z,45.27
2022-12-15T06:51:41.822Z,39.13
2022-12-15T06:54:11.322Z,45.13
2022-12-15T06:56:44.204Z,42.47
2022-12-15T06:59:12.828Z,41.37
2022-12-15T07:01:41.514Z,41.20
2022-12-15T07:04:12.738Z,38.40
2022-12-15T07:06:40.542Z,36.13
2022-12-15T07:09:13.266Z,44.47
2022-12-15T07:11:40.575Z,42.03
2022-12-15T07:14:08.683Z,37.57
2022-12-15T07:16:38.599Z,41.77
2022-12-15T07:19:05.828Z,40.77
2022-12-15T07:21:35.300Z,42.40
2022-12-15T07:24:04.667Z,41.07
2022-12-15T07:26:36.335Z,40.33
2022-12-15T07:29:03.638Z,38.07
2022-12-15T07:31:31.234Z,43.13
2022-12-15T07:34:04.733Z,39.63
2022-12-15T07:36:31.988Z,41.07
2022-12-15T07:39:01.311Z,41.20
2022-12-15T07:41:38.491Z,35.50
2022-12-15T07:44:08.043Z,36.75
2022-12-15T07:46:46.756Z,37.00
2022-12-15T07:49:15.096Z,41.93
2022-12-15T07:51:42.083Z,38.90
2022-12-15T07:54:11.647Z,41.55
2022-12-15T07:56:39.996Z,42.33
2022-12-15T07:59:10.156Z,44.03
2022-12-15T08:01:37.264Z,43.67
2022-12-15T08:04:06.981Z,38.83
2022-12-15T08:06:34.508Z,46.23
2022-12-15T08:09:04.088Z,43.50
2022-12-15T08:11:35.344Z,42.08
2022-12-15T08:14:04.977Z,44.80
2022-12-15T08:16:34.651Z,41.33
2022-12-15T08:19:03.755Z,46.13
2022-12-15T08:21:33.846Z,40.83
2022-12-15T08:24:01.218Z,47.13
2022-12-15T08:26:33.528Z,47.63
2022-12-15T08:31:53.335Z,51.17
2022-12-15T08:34:21.022Z,44.83
2022-12-15T08:36:49.246Z,47.47
2022-12-15T08:39:16.598Z,47.90
2022-12-15T08:41:43.654Z,42.60
2022-12-15T08:44:10.811Z,50.55
2022-12-15T08:46:37.885Z,45.05
2022-12-15T08:49:05.302Z,46.70
2022-12-15T08:51:33.726Z,50.25
2022-12-15T08:54:03.468Z,46.63
2022-12-15T08:56:30.599Z,39.10
2022-12-15T08:59:01.919Z,39.30
2022-12-15T09:01:32.199Z,43.30
2022-12-15T09:04:01.659Z,46.47
2022-12-15T09:06:32.251Z,54.07
2022-12-15T09:09:07.676Z,62.03
2022-12-15T09:11:36.888Z,56.55
2022-12-15T09:14:04.600Z,63.67
2022-12-15T09:16:33.962Z,52.40
2022-12-15T09:19:03.755Z,53.63
2022-12-15T09:21:32.002Z,46.88
2022-12-15T09:24:01.950Z,44.67
2022-12-15T09:26:37.835Z,45.30
2022-12-15T09:29:07.921Z,64.23
2022-12-15T09:31:38.426Z,59.60
2022-12-15T09:34:13.457Z,55.40
2022-12-15T09:36:40.863Z,52.50
2022-12-15T09:39:13.646Z,62.43
2022-12-15T09:41:41.674Z,52.13
2022-12-15T09:44:21.304Z,52.90
2022-12-15T09:47:16.891Z,50.90
2022-12-15T09:50:03.321Z,50.60
2022-12-15T09:52:53.108Z,45.73
2022-12-15T09:55:32.815Z,52.07
2022-12-15T09:58:25.047Z,52.13
2022-12-15T10:01:09.598Z,54.70
2022-12-15T10:04:01.510Z,47.43
2022-12-15T10:06:50.681Z,46.20
2022-12-15T10:09:32.764Z,59.13
2022-12-15T10:12:27.956Z,48.83
2022-12-15T10:15:09.344Z,61.10
2022-12-15T10:18:15.971Z,50.80
2022-12-15T10:20:43.233Z,47.10
2022-12-15T10:23:14.667Z,57.65
2022-12-15T10:25:59.195Z,61.03
2022-12-15T10:29:09.397Z,53.40
2022-12-15T10:31:51.486Z,53.20
2022-12-15T10:34:35.000Z,56.10
2022-12-15T10:37:03.228Z,53.60
2022-12-15T10:39:43.548Z,56.13
2022-12-15T10:42:24.572Z,50.67
2022-12-15T10:44:58.199Z,57.90
2022-12-15T10:47:38.383Z,55.77
2022-12-15T10:50:26.142Z,57.83
2022-12-15T10:52:53.170Z,48.17
2022-12-15T10:55:43.825Z,54.10
2022-12-15T10:58:25.217Z,54.90
2022-12-15T11:01:20.794Z,53.03
2022-12-15T11:03:54.810Z,50.90
2022-12-15T11:06:26.528Z,60.63
2022-12-15T11:09:07.601Z,61.00
2022-12-15T11:12:04.028Z,71.20
2022-12-15T11:14:52.122Z,62.27
2022-12-15T11:17:22.716Z,60.23
2022-12-15T11:22:55.173Z,56.40
2022-12-15T11:25:44.262Z,60.10
2022-12-15T11:28:26.685Z,64.37
2022-12-15T11:31:07.876Z,66.30
2022-12-15T11:33:35.530Z,60.50
2022-12-15T11:36:28.564Z,69.93
2022-12-15T11:39:49.258Z,62.23
2022-12-15T11:42:44.219Z,58.67
2022-12-15T11:45:27.046Z,61.97
2022-12-15T11:48:14.295Z,64.47
2022-12-15T11:51:16.131Z,54.23
2022-12-15T11:54:04.919Z,61.17
2022-12-15T11:56:41.662Z,52.07
2022-12-15T11:59:51.595Z,58.90
2022-12-15T12:02:45.696Z,62.67
2022-12-15T12:05:43.190Z,56.97
2022-12-15T12:08:38.526Z,60.53
2022-12-15T12:11:19.561Z,59.10
2022-12-15T12:14:08.098Z,58.38
2022-12-15T12:17:10.957Z,55.77
2022-12-15T12:19:52.408Z,60.87
2022-12-15T12:22:35.456Z,61.73
2022-12-15T12:25:22.502Z,61.97
2022-12-15T12:28:05.478Z,56.40
2022-12-15T12:30:42.640Z,62.58
2022-12-15T12:33:14.197Z,59.88
2022-12-15T12:36:10.717Z,60.80
2022-12-15T12:38:56.112Z,62.50
2022-12-15T12:41:53.148Z,61.95
2022-12-15T12:44:36.028Z,61.85
2022-12-15T12:47:51.410Z,71.63
2022-12-15T12:50:29.776Z,58.28
2022-12-15T12:52:59.267Z,61.83
2022-12-15T12:55:38.687Z,65.32
2022-12-15T12:58:41.502Z,72.13
2022-12-15T13:01:13.059Z,65.60
2022-12-15T13:03:42.635Z,67.45
2022-12-15T13:06:42.018Z,61.95
2022-12-15T13:09:23.968Z,70.80
2022-12-15T13:12:15.077Z,64.97
2022-12-15T13:14:55.007Z,56.63
2022-12-15T13:17:29.807Z,69.63
2022-12-15T13:19:56.811Z,66.75
2022-12-15T13:22:36.370Z,69.68
2022-12-15T13:25:37.383Z,74.05
2022-12-15T13:28:39.846Z,59.70
2022-12-15T13:31:22.419Z,68.50
2022-12-15T13:33:57.254Z,72.85
2022-12-15T13:36:46.147Z,73.93
2022-12-15T13:39:17.658Z,58.87
2022-12-15T13:47:31.344Z,72.18
2022-12-15T13:50:20.423Z,76.60
2022-12-15T13:56:06.546Z,68.20
2022-12-15T13:58:49.015Z,66.80
2022-12-15T14:01:33.895Z,63.67
2022-12-15T14:04:15.925Z,65.28
2022-12-15T14:06:57.328Z,72.97
2022-12-15T14:09:36.776Z,67.75
2022-12-15T14:12:12.293Z,62.58
2022-12-15T14:14:49.447Z,77.90
2022-12-15T14:17:22.809Z,69.40
2022-12-15T14:19:52.643Z,63.63
2022-12-15T14:22:29.984Z,74.33
2022-12-15T14:25:24.900Z,68.80
2022-12-15T14:27:53.118Z,66.50
2022-12-15T14:30:35.186Z,79.75
2022-12-15T14:33:13.305Z,63.93
2022-12-15T14:35:51.541Z,69.30
2022-12-15T14:38:41.420Z,108.25
2022-12-15T14:41:20.700Z,126.40
2022-12-15T14:44:36.560Z,86.45
2022-12-15T14:46:39.833Z,73.85
2022-12-15T14:49:08.987Z,76.90
2022-12-15T14:51:46.769Z,75.30
2022-12-15T14:54:40.716Z,76.40
2022-12-15T14:57:16.561Z,85.57
2022-12-15T14:59:52.949Z,86.72
2022-12-15T15:02:34.027Z,78.10
2022-12-15T15:03:06.890Z,61.47
2022-12-15T15:05:14.425Z,79.10
2022-12-15T15:07:42.157Z,81.35
2022-12-15T15:10:27.871Z,88.95
2022-12-15T15:12:55.234Z,84.65
2022-12-15T15:15:26.456Z,95.78
2022-12-15T15:17:57.408Z,90.05
2022-12-15T15:20:35.946Z,108.35
2022-12-15T15:23:11.086Z,87.55
2022-12-15T15:25:42.573Z,87.25
2022-12-15T15:28:20.198Z,110.97
2022-12-15T15:31:05.462Z,85.35
2022-12-15T15:33:38.021Z,95.30
2022-12-15T15:36:11.375Z,85.50
2022-12-15T15:38:40.080Z,99.78
2022-12-15T15:41:31.721Z,96.43
2022-12-15T15:44:01.701Z,94.10
2022-12-15T15:46:36.260Z,106.13
2022-12-15T15:49:08.638Z,103.35
2022-12-15T15:51:39.775Z,103.90
2022-12-15T15:54:15.118Z,90.78
2022-12-15T15:56:42.143Z,94.90
2022-12-15T15:59:17.983Z,91.77
2022-12-15T16:01:51.980Z,98.93
2022-12-15T16:04:19.007Z,86.63
2022-12-15T16:06:47.903Z,89.65
2022-12-15T16:09:15.936Z,89.85
2022-12-15T16:11:44.823Z,83.78
2022-12-15T16:14:17.351Z,93.13
2022-12-15T16:16:45.711Z,103.65
2022-12-15T16:19:12.810Z,92.33
2022-12-15T16:21:41.256Z,98.63
2022-12-15T16:24:28.469Z,85.07
2022-12-15T16:29:44.680Z,95.80
2022-12-15T16:32:15.696Z,74.97
2022-12-15T16:34:45.861Z,84.05
2022-12-15T16:37:27.250Z,84.10
2022-12-15T16:39:54.519Z,104.80
2022-12-15T16:42:21.472Z,112.43
2022-12-15T16:44:49.622Z,123.88
2022-12-15T16:47:19.201Z,104.90
2022-12-15T16:49:46.164Z,102.22
2022-12-15T16:52:22.484Z,101.85
2022-12-15T16:54:50.338Z,111.95
2022-12-15T16:57:25.293Z,94.50
2022-12-15T16:59:52.327Z,87.78
2022-12-15T17:02:29.554Z,91.20
2022-12-15T17:05:04.636Z,99.75
2022-12-15T17:07:32.393Z,92.03
2022-12-15T17:12:46.256Z,90.18
2022-12-15T17:15:28.647Z,98.57
2022-12-15T17:17:58.576Z,99.70
2022-12-15T17:20:31.184Z,112.82
2022-12-15T17:23:16.008Z,89.80
2022-12-15T17:26:19.973Z,111.45
2022-12-15T17:28:39.236Z,95.57
2022-12-15T17:31:16.508Z,97.43
2022-12-15T17:33:46.054Z,98.65
2022-12-15T17:36:23.041Z,94.78
2022-12-15T17:38:55.952Z,81.90
2022-12-15T17:41:57.552Z,97.25
2022-12-15T17:44:37.417Z,97.10
2022-12-15T17:47:09.112Z,102.38
2022-12-15T17:49:39.361Z,104.38
2022-12-15T17:52:34.334Z,98.03
2022-12-15T17:55:16.130Z,88.22
2022-12-15T17:57:46.236Z,94.50
2022-12-15T18:00:45.845Z,89.90
2022-12-15T18:03:16.726Z,104.07
2022-12-15T18:08:36.845Z,86.40
2022-12-15T18:11:10.313Z,92.18
2022-12-15T18:13:59.337Z,91.93
2022-12-15T18:19:23.677Z,90.40
2022-12-15T18:21:53.504Z,79.57
2022-12-15T18:24:21.607Z,94.72
2022-12-15T18:26:48.967Z,86.50
2022-12-15T18:29:18.118Z,88.82
2022-12-15T18:34:35.439Z,82.27
2022-12-15T18:37:03.495Z,77.55
2022-12-15T18:39:50.737Z,90.05
2022-12-15T18:42:21.712Z,88.97
2022-12-15T18:47:39.690Z,85.82
2022-12-15T18:50:13.394Z,79.15
2022-12-15T18:52:40.923Z,69.95
2022-12-15T18:55:21.515Z,91.28
2022-12-15T18:57:52.999Z,77.28
2022-12-15T19:00:27.695Z,77.97
2022-12-15T19:03:04.175Z,88.22
2022-12-15T19:05:33.917Z,84.82
2022-12-15T19:08:29.605Z,79.75
2022-12-15T19:11:10.367Z,66.93
2022-12-15T19:13:40.112Z,88.55
2022-12-15T19:16:18.122Z,81.40
2022-12-15T19:19:04.408Z,77.60
2022-12-15T19:21:54.791Z,67.60
2022-12-15T19:24:52.424Z,89.90
2022-12-15T19:27:23.383Z,67.18
2022-12-15T19:29:51.041Z,89.47
2022-12-15T19:32:18.112Z,75.20
2022-12-15T19:34:48.139Z,91.95
2022-12-15T19:37:29.595Z,76.90
2022-12-15T19:39:59.259Z,78.05
2022-12-15T19:42:36.785Z,77.20
2022-12-15T19:45:23.344Z,78.32
2022-12-15T19:47:50.636Z,84.18
2022-12-15T19:50:23.678Z,77.40
2022-12-15T19:52:57.785Z,70.78
2022-12-15T19:55:38.100Z,85.55
2022-12-15T19:58:28.945Z,81.95
2022-12-15T20:01:12.158Z,85.28
2022-12-15T20:03:39.897Z,90.60
2022-12-15T20:06:20.406Z,72.60
2022-12-15T20:08:59.233Z,72.15
2022-12-15T20:11:32.764Z,79.63
2022-12-15T20:14:05.889Z,77.10
2022-12-15T20:16:34.959Z,78.03
2022-12-15T20:19:04.664Z,75.75
2022-12-15T20:21:35.828Z,74.85
2022-12-15T20:24:12.899Z,69.50
2022-12-15T20:26:41.312Z,72.63
2022-12-15T20:29:28.294Z,65.03
2022-12-15T20:32:00.038Z,75.38
2022-12-15T20:34:29.543Z,76.72
2022-12-15T20:36:59.597Z,69.82
2022-12-15T20:39:30.826Z,70.30
2022-12-15T20:42:00.164Z,68.50
2022-12-15T20:44:27.150Z,66.03
2022-12-15T20:46:58.952Z,67.10
2022-12-15T20:49:28.304Z,71.47
2022-12-15T20:51:55.257Z,64.10
2022-12-15T20:54:28.983Z,64.25
2022-12-15T20:56:57.825Z,72.82
2022-12-15T20:59:24.760Z,64.22
2022-12-15T21:01:52.475Z,68.88
2022-12-15T21:04:29.683Z,65.60
2022-12-15T21:06:57.288Z,72.10
2022-12-15T21:09:29.531Z,71.90
2022-12-15T21:12:03.107Z,66.63
2022-12-15T21:14:35.608Z,75.82
2022-12-15T21:17:06.925Z,67.32
2022-12-15T21:19:34.283Z,64.78
2022-12-15T21:22:01.506Z,75.13
2022-12-15T21:24:30.070Z,79.50
2022-12-15T21:26:57.068Z,75.45
2022-12-15T21:29:27.850Z,65.95
2022-12-15T21:31:54.790Z,72.43
2022-12-15T21:34:22.670Z,73.13
2022-12-15T21:36:55.611Z,71.78
2022-12-15T21:39:39.825Z,81.20
2022-12-15T21:42:12.632Z,71.00
2022-12-15T21:44:40.053Z,67.53
2022-12-15T21:47:48.808Z,72.88
2022-12-15T21:50:17.863Z,53.85
2022-12-15T21:52:48.347Z,64.82
2022-12-15T21:55:21.270Z,75.15
2022-12-15T21:57:48.530Z,67.85
2022-12-15T22:00:18.602Z,65.60
2022-12-15T22:02:48.077Z,64.72
2022-12-15T22:05:25.473Z,66.40
2022-12-15T22:07:57.280Z,68.75
2022-12-15T22:10:25.270Z,64.38
2022-12-15T22:12:59.795Z,63.83
2022-12-15T22:15:28.804Z,64.13
2022-12-15T22:17:56.149Z,61.15
2022-12-15T22:20:29.662Z,65.60
2022-12-15T22:22:58.919Z,67.20
2022-12-15T22:25:26.009Z,72.63
2022-12-15T22:27:56.446Z,63.28
2022-12-15T22:30:26.136Z,68.43
2022-12-15T22:32:57.629Z,64.75
2022-12-15T22:35:26.527Z,78.30
2022-12-15T22:37:53.966Z,71.88
2022-12-15T22:40:26.835Z,76.90
2022-12-15T22:42:57.797Z,75.15
2022-12-15T22:45:25.240Z,67.68
2022-12-15T22:47:57.010Z,56.38
2022-12-15T22:50:27.882Z,59.33
2022-12-15T22:52:55.319Z,67.03
2022-12-15T22:55:26.708Z,69.88
2022-12-15T22:58:01.236Z,65.03
2022-12-15T23:00:30.044Z,71.80
2022-12-15T23:03:01.252Z,60.88
2022-12-15T23:05:28.401Z,61.42
2022-12-15T23:07:55.834Z,68.80
2022-12-15T23:10:57.996Z,69.53
2022-12-15T23:13:30.085Z,70.47
2022-12-15T23:16:16.004Z,65.22
2022-12-15T23:18:48.404Z,60.85
2022-12-15T23:21:16.472Z,65.68
2022-12-15T23:23:44.563Z,66.05
2022-12-15T23:26:12.824Z,50.70
2022-12-15T23:28:40.261Z,67.85
2022-12-15T23:31:10.473Z,67.95
2022-12-15T23:33:41.817Z,68.88
2022-12-15T23:36:10.163Z,56.20
2022-12-15T23:38:37.402Z,60.13
2022-12-15T23:41:04.752Z,70.07
2022-12-15T23:43:35.983Z,57.33
2022-12-15T23:46:06.683Z,55.42
2022-12-15T23:48:56.919Z,62.47
2022-12-15T23:51:23.863Z,53.83
2022-12-15T23:53:51.302Z,70.20
2022-12-15T23:56:25.216Z,64.55
2022-12-15T23:58:59.844Z,59.80
